createdAt,value
2018-03-03T00:00:46.343Z,61.97
2018-03-03T00:03:13.081Z,61.50
2018-03-03T00:05:39.749Z,60.57
2018-03-03T00:08:06.450Z,61.57
2018-03-03T00:10:33.106Z,66.17
2018-03-03T00:12:59.744Z,60.80
2018-03-03T00:15:26.428Z,60.60
2018-03-03T00:17:53.113Z,61.40
2018-03-03T00:20:19.774Z,59.90
2018-03-03T00:22:46.491Z,61.35
2018-03-03T00:25:13.135Z,63.27
2018-03-03T00:27:39.970Z,61.40
2018-03-03T00:30:06.613Z,63.07
2018-03-03T00:32:33.235Z,65.20
2018-03-03T00:34:59.963Z,62.03
2018-03-03T00:37:26.652Z,62.50
2018-03-03T00:39:53.332Z,61.63
2018-03-03T00:42:20.046Z,65.53
2018-03-03T00:44:46.736Z,63.07
2018-03-03T00:47:13.439Z,61.70
2018-03-03T00:49:40.078Z,63.53
2018-03-03T00:52:06.744Z,59.67
2018-03-03T00:54:33.395Z,61.53
2018-03-03T00:57:00.061Z,64.67
2018-03-03T00:59:26.719Z,62.30
2018-03-03T01:01:53.630Z,61.80
2018-03-03T01:04:20.262Z,61.60
2018-03-03T01:06:46.927Z,62.37
2018-03-03T01:09:13.580Z,62.87
2018-03-03T01:11:40.311Z,65.47
2018-03-03T01:14:06.985Z,61.40
2018-03-03T01:16:33.622Z,63.40
2018-03-03T01:19:00.339Z,62.40
2018-03-03T01:21:30.486Z,62.27
2018-03-03T01:23:57.175Z,62.53
2018-03-03T01:26:23.814Z,65.07
2018-03-03T01:28:50.532Z,61.93
2018-03-03T01:31:17.161Z,63.40
2018-03-03T01:33:43.790Z,63.80
2018-03-03T01:36:10.443Z,62.60
2018-03-03T01:38:37.108Z,65.27
2018-03-03T01:41:03.865Z,65.07
2018-03-03T01:43:31.491Z,64.60
2018-03-03T01:45:58.136Z,63.60
2018-03-03T01:48:24.890Z,62.58
2018-03-03T01:50:51.558Z,66.50
2018-03-03T01:53:18.248Z,63.67
2018-03-03T01:55:45.140Z,63.20
2018-03-03T01:58:11.856Z,66.00
2018-03-03T02:00:38.493Z,66.80
2018-03-03T02:03:05.274Z,66.90
2018-03-03T02:05:31.966Z,64.57
2018-03-03T02:07:58.605Z,70.33
2018-03-03T02:10:25.247Z,66.50
2018-03-03T02:12:51.932Z,63.93
2018-03-03T02:15:18.550Z,65.60
2018-03-03T02:17:45.320Z,66.17
2018-03-03T02:20:11.958Z,65.00
2018-03-03T02:22:38.650Z,63.63
2018-03-03T02:25:05.311Z,67.67
2018-03-03T02:27:31.970Z,64.00
2018-03-03T02:29:58.859Z,66.20
2018-03-03T02:32:25.580Z,65.77
2018-03-03T02:34:52.269Z,62.90
2018-03-03T02:37:18.920Z,66.83
2018-03-03T02:39:45.566Z,67.57
2018-03-03T02:42:12.294Z,69.77
2018-03-03T02:44:38.946Z,63.20
2018-03-03T02:47:05.605Z,64.70
2018-03-03T02:49:32.367Z,66.80
2018-03-03T02:51:59.023Z,64.90
2018-03-03T02:54:25.759Z,65.30
2018-03-03T02:56:52.414Z,69.27
2018-03-03T02:59:19.205Z,65.90
2018-03-03T03:01:45.939Z,70.40
2018-03-03T03:04:12.600Z,65.93
2018-03-03T03:06:39.228Z,66.43
2018-03-03T03:09:05.902Z,68.70
2018-03-03T03:11:32.598Z,68.17
2018-03-03T03:13:59.396Z,66.87
2018-03-03T03:16:26.040Z,72.13
2018-03-03T03:18:52.676Z,66.43
2018-03-03T03:21:19.392Z,64.20
2018-03-03T03:23:46.151Z,68.20
2018-03-03T03:26:12.914Z,67.90
2018-03-03T03:28:39.590Z,68.17
2018-03-03T03:31:06.232Z,68.93
2018-03-03T03:33:32.902Z,64.87
2018-03-03T03:35:59.678Z,63.03
2018-03-03T03:38:26.304Z,65.20
2018-03-03T03:40:52.999Z,68.57
2018-03-03T03:43:19.734Z,68.70
2018-03-03T03:45:46.437Z,65.73
2018-03-03T03:48:13.118Z,66.80
2018-03-03T03:50:39.908Z,64.93
2018-03-03T03:53:06.560Z,64.00
2018-03-03T03:55:33.320Z,67.90
2018-03-03T03:58:00.001Z,67.77
2018-03-03T04:00:26.720Z,67.03
2018-03-03T04:02:53.394Z,64.80
2018-03-03T04:05:20.143Z,65.60
2018-03-03T04:07:46.800Z,69.20
2018-03-03T04:10:13.492Z,66.90
2018-03-03T04:12:40.264Z,69.50
2018-03-03T04:15:06.974Z,68.60
2018-03-03T04:17:33.695Z,70.03
2018-03-03T04:20:00.377Z,68.23
2018-03-03T04:22:27.043Z,71.43
2018-03-03T04:24:53.714Z,69.80
2018-03-03T04:27:20.400Z,69.80
2018-03-03T04:29:48.073Z,67.70
2018-03-03T04:32:14.728Z,69.30
2018-03-03T04:34:41.384Z,71.90
2018-03-03T04:37:08.032Z,69.83
2018-03-03T04:39:34.692Z,68.97
2018-03-03T04:42:01.486Z,68.10
2018-03-03T04:44:28.144Z,69.43
2018-03-03T04:46:55.246Z,71.17
2018-03-03T04:49:21.937Z,68.30
2018-03-03T04:51:48.584Z,66.13
2018-03-03T04:54:15.266Z,71.90
2018-03-03T04:56:41.964Z,67.30
2018-03-03T04:59:14.292Z,69.07
2018-03-03T05:01:51.007Z,64.00
2018-03-03T05:04:23.480Z,67.70
2018-03-03T05:07:05.022Z,67.33
2018-03-03T05:09:31.738Z,69.87
2018-03-03T05:11:58.402Z,69.63
2018-03-03T05:14:40.931Z,75.83
2018-03-03T05:17:08.406Z,69.40
2018-03-03T05:19:40.830Z,69.57
2018-03-03T05:22:25.202Z,70.47
2018-03-03T05:24:57.425Z,70.83
2018-03-03T05:27:30.007Z,70.03
2018-03-03T05:30:13.248Z,72.90
2018-03-03T05:32:45.663Z,69.43
2018-03-03T05:35:17.998Z,70.50
2018-03-03T05:37:50.127Z,71.30
2018-03-03T05:40:22.466Z,70.50
2018-03-03T05:43:04.023Z,70.20
2018-03-03T05:45:50.492Z,69.10
2018-03-03T05:48:22.715Z,69.43
2018-03-03T05:50:51.124Z,69.57
2018-03-03T05:53:17.759Z,70.15
2018-03-03T05:55:50.244Z,73.50
2018-03-03T05:58:37.652Z,71.30
2018-03-03T06:01:09.953Z,72.60
2018-03-03T06:04:07.976Z,70.47
2018-03-03T06:06:49.622Z,70.60
2018-03-03T06:09:28.000Z,73.07
2018-03-03T06:11:54.648Z,71.97
2018-03-03T06:14:21.314Z,73.13
2018-03-03T06:16:48.193Z,74.50
2018-03-03T06:19:14.874Z,74.33
2018-03-03T06:21:41.564Z,74.07
2018-03-03T06:24:08.522Z,74.97
2018-03-03T06:26:35.146Z,71.77
2018-03-03T06:29:01.819Z,72.32
2018-03-03T06:31:28.496Z,68.20
2018-03-03T06:33:55.114Z,73.90
2018-03-03T06:36:21.767Z,73.03
2018-03-03T06:38:48.473Z,71.80
2018-03-03T06:41:15.162Z,68.43
2018-03-03T06:43:41.825Z,71.03
2018-03-03T06:46:08.559Z,69.77
2018-03-03T06:48:35.130Z,70.70
2018-03-03T06:51:01.801Z,68.87
2018-03-03T06:53:28.450Z,72.62
2018-03-03T06:55:55.393Z,74.00
2018-03-03T06:58:22.036Z,70.57
2018-03-03T07:00:48.688Z,70.60
2018-03-03T07:03:15.435Z,73.40
2018-03-03T07:05:42.137Z,70.30
2018-03-03T07:08:08.878Z,71.60
2018-03-03T07:10:35.634Z,70.87
2018-03-03T07:13:02.289Z,72.10
2018-03-03T07:15:28.971Z,72.47
2018-03-03T07:17:55.669Z,68.53
2018-03-03T07:20:22.448Z,68.30
2018-03-03T07:22:49.185Z,69.30
2018-03-03T07:25:15.843Z,70.70
2018-03-03T07:27:42.520Z,70.40
2018-03-03T07:30:09.219Z,67.17
2018-03-03T07:32:36.004Z,69.30
2018-03-03T07:35:02.716Z,69.17
2018-03-03T07:37:29.572Z,70.43
2018-03-03T07:39:56.246Z,70.83
2018-03-03T07:42:22.979Z,69.37
2018-03-03T07:44:49.584Z,72.03
2018-03-03T07:47:16.245Z,68.67
2018-03-03T07:49:42.882Z,70.10
2018-03-03T07:52:09.563Z,72.13
2018-03-03T07:54:36.452Z,72.10
2018-03-03T07:57:08.907Z,71.27
2018-03-03T07:59:35.567Z,67.93
2018-03-03T08:02:02.187Z,69.30
2018-03-03T08:04:28.886Z,69.13
2018-03-03T08:06:55.610Z,70.20
2018-03-03T08:09:22.324Z,67.40
2018-03-03T08:11:49.038Z,67.83
2018-03-03T08:14:15.761Z,67.00
2018-03-03T08:16:42.568Z,68.50
2018-03-03T08:19:09.904Z,67.20
2018-03-03T08:21:36.605Z,66.80
2018-03-03T08:24:05.125Z,67.43
2018-03-03T08:26:31.786Z,65.67
2018-03-03T08:28:58.429Z,66.20
2018-03-03T08:31:25.077Z,65.77
2018-03-03T08:33:51.732Z,67.23
2018-03-03T08:36:18.412Z,67.17
2018-03-03T08:38:45.213Z,68.47
2018-03-03T08:41:11.823Z,67.73
2018-03-03T08:43:38.492Z,65.57
2018-03-03T08:46:05.144Z,66.70
2018-03-03T08:48:31.802Z,69.80
2018-03-03T08:50:58.472Z,65.30
2018-03-03T08:53:25.186Z,69.37
2018-03-03T08:55:51.845Z,63.53
2018-03-03T08:58:18.539Z,67.33
2018-03-03T09:00:45.158Z,67.57
2018-03-03T09:03:11.817Z,70.40
2018-03-03T09:05:38.560Z,71.10
2018-03-03T09:08:05.236Z,67.77
2018-03-03T09:10:31.898Z,65.70
2018-03-03T09:12:58.524Z,71.37
2018-03-03T09:15:25.245Z,66.33
2018-03-03T09:17:51.816Z,66.20
2018-03-03T09:20:18.515Z,66.30
2018-03-03T09:22:45.194Z,66.30
2018-03-03T09:25:11.842Z,67.67
2018-03-03T09:27:38.563Z,62.47
2018-03-03T09:30:05.192Z,64.00
2018-03-03T09:32:31.897Z,64.90
2018-03-03T09:34:58.529Z,63.40
2018-03-03T09:37:25.244Z,67.90
2018-03-03T09:39:51.983Z,65.80
2018-03-03T09:42:18.668Z,66.43
2018-03-03T09:44:45.669Z,65.20
2018-03-03T09:47:12.361Z,65.83
2018-03-03T09:49:39.118Z,65.73
2018-03-03T09:52:05.758Z,63.60
2018-03-03T09:54:32.424Z,67.00
2018-03-03T09:56:59.081Z,66.30
2018-03-03T09:59:25.874Z,64.97
2018-03-03T10:02:05.849Z,62.77
2018-03-03T10:04:19.161Z,64.07
2018-03-03T10:06:45.875Z,64.17
2018-03-03T10:09:12.539Z,64.80
2018-03-03T10:11:41.483Z,62.50
2018-03-03T10:14:08.158Z,62.80
2018-03-03T10:16:35.032Z,60.20
2018-03-03T10:19:01.674Z,61.97
2018-03-03T10:21:28.313Z,63.33
2018-03-03T10:23:55.908Z,62.57
2018-03-03T10:26:23.603Z,61.90
2018-03-03T10:28:50.236Z,59.60
2018-03-03T10:31:16.906Z,63.80
2018-03-03T10:33:43.604Z,58.63
2018-03-03T10:36:10.254Z,61.37
2018-03-03T10:38:36.932Z,56.70
2018-03-03T10:41:03.588Z,60.17
2018-03-03T10:43:30.242Z,61.83
2018-03-03T10:45:57.709Z,61.57
2018-03-03T10:48:24.647Z,61.17
2018-03-03T10:50:51.284Z,61.17
2018-03-03T10:53:17.933Z,61.43
2018-03-03T10:55:44.578Z,61.73
2018-03-03T10:58:11.231Z,62.83
2018-03-03T11:00:37.945Z,61.67
2018-03-03T11:03:04.614Z,63.77
2018-03-03T11:05:31.316Z,61.60
2018-03-03T11:07:58.012Z,62.60
2018-03-03T11:10:24.865Z,60.67
2018-03-03T11:12:53.081Z,58.97
2018-03-03T11:15:19.778Z,60.17
2018-03-03T11:17:46.413Z,63.30
2018-03-03T11:20:13.085Z,61.57
2018-03-03T11:22:39.794Z,60.80
2018-03-03T11:25:06.451Z,58.93
2018-03-03T11:27:33.091Z,62.00
2018-03-03T11:29:59.819Z,58.37
2018-03-03T11:32:26.474Z,60.20
2018-03-03T11:34:53.113Z,59.10
2018-03-03T11:37:19.819Z,57.47
2018-03-03T11:39:48.032Z,62.23
2018-03-03T11:42:14.798Z,59.23
2018-03-03T11:44:41.416Z,58.67
2018-03-03T11:47:08.156Z,59.77
2018-03-03T11:49:34.898Z,62.10
2018-03-03T11:52:01.554Z,59.17
2018-03-03T11:54:28.198Z,59.27
2018-03-03T11:56:55.069Z,58.13
2018-03-03T11:59:21.743Z,57.37
2018-03-03T12:01:48.664Z,59.40
2018-03-03T12:04:15.359Z,58.80
2018-03-03T12:06:42.022Z,56.40
2018-03-03T12:09:08.739Z,60.27
2018-03-03T12:11:36.110Z,56.20
2018-03-03T12:14:04.124Z,56.80
2018-03-03T12:16:30.906Z,61.10
2018-03-03T12:18:57.605Z,56.90
2018-03-03T12:21:25.472Z,56.70
2018-03-03T12:23:52.099Z,55.97
2018-03-03T12:26:18.786Z,56.37
2018-03-03T12:28:45.433Z,54.00
2018-03-03T12:31:12.225Z,54.67
2018-03-03T12:33:38.877Z,54.73
2018-03-03T12:36:05.512Z,57.63
2018-03-03T12:38:32.180Z,56.47
2018-03-03T12:40:58.985Z,56.90
2018-03-03T12:43:25.610Z,55.53
2018-03-03T12:45:52.558Z,55.77
2018-03-03T12:48:19.220Z,56.97
2018-03-03T12:50:46.041Z,54.60
2018-03-03T12:53:12.754Z,55.67
2018-03-03T12:55:39.423Z,52.60
2018-03-03T12:58:06.158Z,55.40
2018-03-03T13:00:32.903Z,52.37
2018-03-03T13:02:59.653Z,53.63
2018-03-03T13:05:26.392Z,53.40
2018-03-03T13:07:53.226Z,53.70
2018-03-03T13:10:19.872Z,51.43
2018-03-03T13:12:46.543Z,53.00
2018-03-03T13:15:13.191Z,55.20
2018-03-03T13:17:40.644Z,53.17
2018-03-03T13:20:07.336Z,52.30
2018-03-03T13:22:34.032Z,53.13
2018-03-03T13:25:00.688Z,52.70
2018-03-03T13:27:28.331Z,55.07
2018-03-03T13:29:55.015Z,51.80
2018-03-03T13:32:21.721Z,50.70
2018-03-03T13:34:48.488Z,52.53
2018-03-03T13:37:15.160Z,50.73
2018-03-03T13:39:41.790Z,49.70
2018-03-03T13:42:08.467Z,50.03
2018-03-03T13:44:35.338Z,49.13
2018-03-03T13:47:02.136Z,51.47
2018-03-03T13:49:28.850Z,50.53
2018-03-03T13:51:55.531Z,53.10
2018-03-03T13:54:22.165Z,54.13
2018-03-03T13:56:48.969Z,53.23
2018-03-03T13:59:15.646Z,53.63
2018-03-03T14:01:42.266Z,55.50
2018-03-03T14:04:08.945Z,56.57
2018-03-03T14:06:35.602Z,56.70
2018-03-03T14:09:02.298Z,57.60
2018-03-03T14:11:28.946Z,58.27
2018-03-03T14:13:55.584Z,56.80
2018-03-03T14:16:22.203Z,61.97
2018-03-03T14:18:48.876Z,59.37
2018-03-03T14:21:15.715Z,60.27
2018-03-03T14:23:42.543Z,57.67
2018-03-03T14:26:09.438Z,61.27
2018-03-03T14:28:36.076Z,62.17
2018-03-03T14:31:02.712Z,62.03
2018-03-03T14:33:29.385Z,60.90
2018-03-03T14:35:56.035Z,62.23
2018-03-03T14:38:22.753Z,62.60
2018-03-03T14:40:49.434Z,61.77
2018-03-03T14:43:16.084Z,60.47
2018-03-03T14:45:42.776Z,61.63
2018-03-03T14:48:09.451Z,57.43
2018-03-03T14:50:36.177Z,59.60
2018-03-03T14:53:02.870Z,59.43
2018-03-03T14:55:29.519Z,61.63
2018-03-03T14:57:56.849Z,61.50
2018-03-03T15:00:23.879Z,60.30
2018-03-03T15:02:50.803Z,62.10
2018-03-03T15:05:17.500Z,57.53
2018-03-03T15:07:44.244Z,59.10
2018-03-03T15:10:10.932Z,59.53
2018-03-03T15:12:37.568Z,58.53
2018-03-03T15:15:04.796Z,58.80
2018-03-03T15:17:31.482Z,59.27
2018-03-03T15:19:58.183Z,67.90
2018-03-03T15:22:24.835Z,71.73
2018-03-03T15:24:51.477Z,70.90
2018-03-03T15:27:18.400Z,70.70
2018-03-03T15:29:45.156Z,67.97
2018-03-03T15:32:11.802Z,68.20
2018-03-03T15:34:38.678Z,72.87
2018-03-03T15:37:05.382Z,71.87
2018-03-03T15:39:32.272Z,73.60
2018-03-03T15:41:58.848Z,73.50
2018-03-03T15:44:26.330Z,70.60
2018-03-03T15:46:53.206Z,76.53
2018-03-03T15:49:19.990Z,73.20
2018-03-03T15:51:46.737Z,72.47
2018-03-03T15:54:13.453Z,71.17
2018-03-03T15:56:40.190Z,73.43
2018-03-03T15:59:06.872Z,72.70
2018-03-03T16:01:33.521Z,69.90
2018-03-03T16:04:00.389Z,73.07
2018-03-03T16:06:27.059Z,73.40
2018-03-03T16:08:53.735Z,73.20
2018-03-03T16:11:20.371Z,73.33
2018-03-03T16:13:47.011Z,73.63
2018-03-03T16:16:13.896Z,72.67
2018-03-03T16:18:40.577Z,72.07
2018-03-03T16:21:07.227Z,70.57
2018-03-03T16:23:33.934Z,69.60
2018-03-03T16:26:00.591Z,70.50
2018-03-03T16:28:27.244Z,72.87
2018-03-03T16:30:53.863Z,73.73
2018-03-03T16:33:20.605Z,67.50
2018-03-03T16:35:47.268Z,72.50
2018-03-03T16:38:13.921Z,71.97
2018-03-03T16:40:40.612Z,71.53
2018-03-03T16:43:07.317Z,71.87
2018-03-03T16:45:33.969Z,71.57
2018-03-03T16:48:00.639Z,73.53
2018-03-03T16:50:27.366Z,74.27
2018-03-03T16:52:54.086Z,76.17
2018-03-03T16:55:20.793Z,72.27
2018-03-03T16:57:47.506Z,74.57
2018-03-03T17:00:14.231Z,71.03
2018-03-03T17:02:41.034Z,72.80
2018-03-03T17:05:07.747Z,74.10
2018-03-03T17:07:34.524Z,71.70
2018-03-03T17:10:02.595Z,74.80
2018-03-03T17:12:29.364Z,77.90
2018-03-03T17:14:55.977Z,74.57
2018-03-03T17:17:22.629Z,77.90
2018-03-03T17:19:49.341Z,76.73
2018-03-03T17:22:16.206Z,75.30
2018-03-03T17:24:42.911Z,79.20
2018-03-03T17:27:09.810Z,75.17
2018-03-03T17:29:36.452Z,75.13
2018-03-03T17:32:03.186Z,79.10
2018-03-03T17:34:29.880Z,77.30
2018-03-03T17:36:56.631Z,73.17
2018-03-03T17:39:23.332Z,75.63
2018-03-03T17:41:49.963Z,74.17
2018-03-03T17:44:16.897Z,76.43
2018-03-03T17:46:43.619Z,73.47
2018-03-03T17:49:10.310Z,75.80
2018-03-03T17:51:36.961Z,80.07
2018-03-03T17:54:03.834Z,76.50
2018-03-03T17:56:30.584Z,75.03
2018-03-03T17:58:57.287Z,76.50
2018-03-03T18:01:23.966Z,73.60
2018-03-03T18:03:50.636Z,75.80
2018-03-03T18:06:17.268Z,76.97
2018-03-03T18:08:43.956Z,77.27
2018-03-03T18:11:10.582Z,74.50
2018-03-03T18:13:37.261Z,76.87
2018-03-03T18:16:03.921Z,79.10
2018-03-03T18:18:30.626Z,74.87
2018-03-03T18:20:57.292Z,75.00
2018-03-03T18:23:23.941Z,73.27
2018-03-03T18:25:50.609Z,75.43
2018-03-03T18:28:17.276Z,76.00
2018-03-03T18:30:43.974Z,75.47
2018-03-03T18:33:11.229Z,74.33
2018-03-03T18:35:37.906Z,72.40
2018-03-03T18:38:04.635Z,70.10
2018-03-03T18:40:31.359Z,71.10
2018-03-03T18:42:58.059Z,67.10
2018-03-03T18:45:24.694Z,72.97
2018-03-03T18:47:51.370Z,71.60
2018-03-03T18:50:18.078Z,73.07
2018-03-03T18:52:44.811Z,69.40
2018-03-03T18:55:13.007Z,72.63
2018-03-03T18:57:41.778Z,71.70
2018-03-03T19:00:08.488Z,75.20
2018-03-03T19:02:35.198Z,76.87
2018-03-03T19:05:01.913Z,76.40
2018-03-03T19:07:28.590Z,74.73
2018-03-03T19:09:55.276Z,77.60
2018-03-03T19:12:21.909Z,78.90
2018-03-03T19:14:48.535Z,74.37
2018-03-03T19:17:15.200Z,75.03
2018-03-03T19:19:41.885Z,70.67
2018-03-03T19:22:08.523Z,73.50
2018-03-03T19:24:35.231Z,73.80
2018-03-03T19:27:01.939Z,77.10
2018-03-03T19:29:28.645Z,74.70
2018-03-03T19:31:55.552Z,73.63
2018-03-03T19:34:22.268Z,73.40
2018-03-03T19:36:49.104Z,75.87
2018-03-03T19:39:15.771Z,76.97
2018-03-03T19:41:42.444Z,73.20
2018-03-03T19:44:09.106Z,72.47
2018-03-03T19:46:35.797Z,75.43
2018-03-03T19:49:02.503Z,77.33
2018-03-03T19:51:29.211Z,75.37
2018-03-03T19:53:56.135Z,76.80
2018-03-03T19:56:22.930Z,76.43
2018-03-03T19:58:49.650Z,74.50
2018-03-03T20:01:16.285Z,77.00
2018-03-03T20:03:43.085Z,75.30
2018-03-03T20:06:09.968Z,75.33
2018-03-03T20:08:36.609Z,81.10
2018-03-03T20:11:03.292Z,79.70
2018-03-03T20:13:30.418Z,80.30
2018-03-03T20:15:57.114Z,85.63
2018-03-03T20:18:23.742Z,78.73
2018-03-03T20:20:50.407Z,79.17
2018-03-03T20:23:17.078Z,79.37
2018-03-03T20:25:43.809Z,81.00
2018-03-03T20:28:10.501Z,77.80
2018-03-03T20:30:37.452Z,81.37
2018-03-03T20:33:04.138Z,76.90
2018-03-03T20:35:30.814Z,74.90
2018-03-03T20:37:57.465Z,81.33
2018-03-03T20:40:24.205Z,79.27
2018-03-03T20:42:50.973Z,81.07
2018-03-03T20:45:17.608Z,81.73
2018-03-03T20:47:44.306Z,76.40
2018-03-03T20:50:10.955Z,78.07
2018-03-03T20:52:37.628Z,83.00
2018-03-03T20:55:04.922Z,78.83
2018-03-03T20:57:31.599Z,82.20
2018-03-03T20:59:58.251Z,80.67
2018-03-03T21:02:24.952Z,80.10
2018-03-03T21:04:51.766Z,78.80
2018-03-03T21:07:18.422Z,80.53
2018-03-03T21:09:45.198Z,81.77
2018-03-03T21:12:12.453Z,81.07
2018-03-03T21:14:39.112Z,85.67
2018-03-03T21:17:05.821Z,86.70
2018-03-03T21:19:32.690Z,85.57
2018-03-03T21:21:59.381Z,81.70
2018-03-03T21:24:26.011Z,81.47
2018-03-03T21:26:52.782Z,80.17
2018-03-03T21:29:19.500Z,80.47
2018-03-03T21:31:46.366Z,79.87
2018-03-03T21:34:13.308Z,79.80
2018-03-03T21:36:40.179Z,80.50
2018-03-03T21:39:06.891Z,80.27
2018-03-03T21:41:33.567Z,80.77
2018-03-03T21:44:00.314Z,80.67
2018-03-03T21:46:27.083Z,82.37
2018-03-03T21:48:53.786Z,82.07
2018-03-03T21:51:21.485Z,81.60
2018-03-03T21:53:48.320Z,83.90
2018-03-03T21:56:15.061Z,83.37
2018-03-03T21:58:41.838Z,83.63
2018-03-03T22:01:08.813Z,83.97
2018-03-03T22:03:35.669Z,85.27
2018-03-03T22:06:02.436Z,85.90
2018-03-03T22:08:29.384Z,81.90
2018-03-03T22:10:56.014Z,79.63
2018-03-03T22:13:22.648Z,79.67
2018-03-03T22:15:49.379Z,80.33
2018-03-03T22:18:16.070Z,78.17
2018-03-03T22:20:42.742Z,81.30
2018-03-03T22:23:09.442Z,80.37
2018-03-03T22:25:36.084Z,77.90
2018-03-03T22:28:02.753Z,82.80
2018-03-03T22:30:29.426Z,79.97
2018-03-03T22:32:56.366Z,83.77
2018-03-03T22:35:23.154Z,83.80
2018-03-03T22:37:49.786Z,78.83
2018-03-03T22:40:16.501Z,86.30
2018-03-03T22:42:43.173Z,87.37
2018-03-03T22:45:09.799Z,89.20
2018-03-03T22:47:36.473Z,88.37
2018-03-03T22:50:03.122Z,84.90
2018-03-03T22:52:29.780Z,91.10
2018-03-03T22:54:56.432Z,87.93
2018-03-03T22:57:23.530Z,85.27
2018-03-03T22:59:50.300Z,83.73
2018-03-03T23:02:17.002Z,81.07
2018-03-03T23:04:43.734Z,84.20
2018-03-03T23:07:10.366Z,86.73
2018-03-03T23:09:37.066Z,85.23
2018-03-03T23:12:03.692Z,79.67
2018-03-03T23:14:30.474Z,86.30
2018-03-03T23:16:57.211Z,89.17
2018-03-03T23:19:24.277Z,89.07
2018-03-03T23:21:50.946Z,88.23
2018-03-03T23:24:17.643Z,89.47
2018-03-03T23:26:44.289Z,93.57
2018-03-03T23:29:10.976Z,89.27
2018-03-03T23:31:37.619Z,90.07
2018-03-03T23:34:04.264Z,90.50
2018-03-03T23:36:31.156Z,84.87
2018-03-03T23:38:57.857Z,83.87
2018-03-03T23:41:24.550Z,83.80
2018-03-03T23:43:51.530Z,79.80
2018-03-03T23:46:18.211Z,81.60
2018-03-03T23:48:44.835Z,79.20
2018-03-03T23:51:11.480Z,75.73
2018-03-03T23:53:38.176Z,78.63
2018-03-03T23:56:04.814Z,76.47
2018-03-03T23:58:31.495Z,79.07
